sensor_id;sensor_type;location;lat;lon;timestamp;P1;durP1;ratioP1;P2;durP2;ratioP2
6434;SDS011;3250;42.694;23.278;2023-11-21T00:01:58;52.03;;;21.30;;
6434;SDS011;3250;42.694;23.278;2023-11-21T00:04:24;55.90;;;24.43;;
6434;SDS011;3250;42.694;23.278;2023-11-21T00:06:50;68.87;;;23.87;;
6434;SDS011;3250;42.694;23.278;2023-11-21T00:09:16;39.83;;;18.40;;
6434;SDS011;3250;42.694;23.278;2023-11-21T00:11:42;55.00;;;21.87;;
6434;SDS011;3250;42.694;23.278;2023-11-21T00:14:09;50.40;;;22.93;;
6434;SDS011;3250;42.694;23.278;2023-11-21T00:16:35;58.10;;;26.38;;
6434;SDS011;3250;42.694;23.278;2023-11-21T00:19:01;48.80;;;19.63;;
6434;SDS011;3250;42.694;23.278;2023-11-21T00:21:26;51.17;;;21.83;;
6434;SDS011;3250;42.694;23.278;2023-11-21T00:23:52;54.50;;;21.20;;
6434;SDS011;3250;42.694;23.278;2023-11-21T00:26:17;50.33;;;22.00;;
6434;SDS011;3250;42.694;23.278;2023-11-21T00:28:42;48.47;;;19.93;;
6434;SDS011;3250;42.694;23.278;2023-11-21T00:31:08;44.23;;;20.63;;
6434;SDS011;3250;42.694;23.278;2023-11-21T00:33:33;52.13;;;20.53;;
6434;SDS011;3250;42.694;23.278;2023-11-21T00:35:59;62.23;;;22.70;;
6434;SDS011;3250;42.694;23.278;2023-11-21T00:38:25;57.63;;;23.87;;
6434;SDS011;3250;42.694;23.278;2023-11-21T00:40:52;58.37;;;22.40;;
6434;SDS011;3250;42.694;23.278;2023-11-21T00:43:21;57.33;;;21.80;;
6434;SDS011;3250;42.694;23.278;2023-11-21T00:45:49;50.13;;;19.43;;
6434;SDS011;3250;42.694;23.278;2023-11-21T00:48:15;55.43;;;22.47;;
6434;SDS011;3250;42.694;23.278;2023-11-21T00:50:40;56.93;;;24.10;;
6434;SDS011;3250;42.694;23.278;2023-11-21T00:53:06;67.53;;;27.50;;
6434;SDS011;3250;42.694;23.278;2023-11-21T00:55:32;67.67;;;25.07;;
6434;SDS011;3250;42.694;23.278;2023-11-21T00:57:58;52.93;;;25.13;;
6434;SDS011;3250;42.694;23.278;2023-11-21T01:00:24;77.63;;;26.50;;
6434;SDS011;3250;42.694;23.278;2023-11-21T01:02:50;60.73;;;25.57;;
6434;SDS011;3250;42.694;23.278;2023-11-21T01:05:15;65.00;;;26.33;;
6434;SDS011;3250;42.694;23.278;2023-11-21T01:07:41;77.80;;;25.33;;
6434;SDS011;3250;42.694;23.278;2023-11-21T01:10:07;66.10;;;25.53;;
6434;SDS011;3250;42.694;23.278;2023-11-21T01:12:36;63.23;;;26.60;;
6434;SDS011;3250;42.694;23.278;2023-11-21T01:15:06;56.80;;;24.70;;
6434;SDS011;3250;42.694;23.278;2023-11-21T01:17:36;68.10;;;25.00;;
6434;SDS011;3250;42.694;23.278;2023-11-21T01:20:03;67.50;;;26.60;;
6434;SDS011;3250;42.694;23.278;2023-11-21T01:22:36;56.57;;;24.93;;
6434;SDS011;3250;42.694;23.278;2023-11-21T01:25:02;66.30;;;23.67;;
6434;SDS011;3250;42.694;23.278;2023-11-21T01:27:29;55.23;;;24.73;;
6434;SDS011;3250;42.694;23.278;2023-11-21T01:29:55;61.27;;;22.30;;
6434;SDS011;3250;42.694;23.278;2023-11-21T01:32:20;42.37;;;18.10;;
6434;SDS011;3250;42.694;23.278;2023-11-21T01:34:45;43.27;;;16.43;;
6434;SDS011;3250;42.694;23.278;2023-11-21T01:37:11;45.40;;;16.33;;
6434;SDS011;3250;42.694;23.278;2023-11-21T01:39:37;31.00;;;15.33;;
6434;SDS011;3250;42.694;23.278;2023-11-21T01:42:04;43.43;;;17.03;;
6434;SDS011;3250;42.694;23.278;2023-11-21T01:44:30;35.23;;;17.57;;
6434;SDS011;3250;42.694;23.278;2023-11-21T01:46:55;48.93;;;20.43;;
6434;SDS011;3250;42.694;23.278;2023-11-21T01:49:22;47.27;;;18.07;;
6434;SDS011;3250;42.694;23.278;2023-11-21T01:51:48;34.13;;;17.43;;
6434;SDS011;3250;42.694;23.278;2023-11-21T01:54:16;45.70;;;18.87;;
6434;SDS011;3250;42.694;23.278;2023-11-21T01:56:45;33.07;;;15.27;;
6434;SDS011;3250;42.694;23.278;2023-11-21T01:59:12;48.80;;;20.23;;
6434;SDS011;3250;42.694;23.278;2023-11-21T02:01:41;39.80;;;17.80;;
6434;SDS011;3250;42.694;23.278;2023-11-21T02:04:07;50.73;;;19.63;;
6434;SDS011;3250;42.694;23.278;2023-11-21T02:06:33;42.57;;;16.83;;
6434;SDS011;3250;42.694;23.278;2023-11-21T02:08:59;33.83;;;17.07;;
6434;SDS011;3250;42.694;23.278;2023-11-21T02:11:24;41.27;;;16.27;;
6434;SDS011;3250;42.694;23.278;2023-11-21T02:13:52;33.70;;;17.67;;
6434;SDS011;3250;42.694;23.278;2023-11-21T02:16:19;43.67;;;18.67;;
6434;SDS011;3250;42.694;23.278;2023-11-21T02:18:46;32.73;;;16.10;;
6434;SDS011;3250;42.694;23.278;2023-11-21T02:21:13;41.47;;;17.97;;
6434;SDS011;3250;42.694;23.278;2023-11-21T02:23:39;49.60;;;18.50;;
6434;SDS011;3250;42.694;23.278;2023-11-21T02:26:09;45.07;;;17.20;;
6434;SDS011;3250;42.694;23.278;2023-11-21T02:28:34;41.33;;;16.80;;
6434;SDS011;3250;42.694;23.278;2023-11-21T02:31:00;39.77;;;17.80;;
6434;SDS011;3250;42.694;23.278;2023-11-21T02:33:27;42.27;;;17.30;;
6434;SDS011;3250;42.694;23.278;2023-11-21T02:35:53;32.57;;;17.73;;
6434;SDS011;3250;42.694;23.278;2023-11-21T02:38:20;32.90;;;17.37;;
6434;SDS011;3250;42.694;23.278;2023-11-21T02:40:46;51.90;;;17.63;;
6434;SDS011;3250;42.694;23.278;2023-11-21T02:43:11;47.80;;;19.13;;
6434;SDS011;3250;42.694;23.278;2023-11-21T02:45:37;41.27;;;17.10;;
6434;SDS011;3250;42.694;23.278;2023-11-21T02:48:02;37.93;;;16.07;;
6434;SDS011;3250;42.694;23.278;2023-11-21T02:50:29;42.67;;;16.77;;
6434;SDS011;3250;42.694;23.278;2023-11-21T02:52:55;38.77;;;16.60;;
6434;SDS011;3250;42.694;23.278;2023-11-21T02:55:22;43.23;;;16.80;;
6434;SDS011;3250;42.694;23.278;2023-11-21T02:57:50;40.27;;;18.40;;
6434;SDS011;3250;42.694;23.278;2023-11-21T03:00:16;30.17;;;13.60;;
6434;SDS011;3250;42.694;23.278;2023-11-21T03:02:41;33.07;;;14.63;;
6434;SDS011;3250;42.694;23.278;2023-11-21T03:05:08;32.50;;;14.47;;
6434;SDS011;3250;42.694;23.278;2023-11-21T03:07:34;29.97;;;14.33;;
6434;SDS011;3250;42.694;23.278;2023-11-21T03:10:00;38.23;;;14.30;;
6434;SDS011;3250;42.694;23.278;2023-11-21T03:12:25;34.87;;;14.87;;
6434;SDS011;3250;42.694;23.278;2023-11-21T03:14:51;27.83;;;12.47;;
6434;SDS011;3250;42.694;23.278;2023-11-21T03:17:16;34.67;;;15.00;;
6434;SDS011;3250;42.694;23.278;2023-11-21T03:19:42;28.57;;;13.97;;
6434;SDS011;3250;42.694;23.278;2023-11-21T03:22:07;32.63;;;14.50;;
6434;SDS011;3250;42.694;23.278;2023-11-21T03:24:33;37.23;;;16.17;;
6434;SDS011;3250;42.694;23.278;2023-11-21T03:26:59;31.87;;;16.63;;
6434;SDS011;3250;42.694;23.278;2023-11-21T03:29:25;36.67;;;16.70;;
6434;SDS011;3250;42.694;23.278;2023-11-21T03:31:51;33.90;;;18.40;;
6434;SDS011;3250;42.694;23.278;2023-11-21T03:34:22;33.57;;;16.80;;
6434;SDS011;3250;42.694;23.278;2023-11-21T03:36:50;55.65;;;24.08;;
6434;SDS011;3250;42.694;23.278;2023-11-21T03:39:16;43.27;;;21.90;;
6434;SDS011;3250;42.694;23.278;2023-11-21T03:41:41;38.30;;;16.50;;
6434;SDS011;3250;42.694;23.278;2023-11-21T03:44:07;41.30;;;20.20;;
6434;SDS011;3250;42.694;23.278;2023-11-21T03:46:32;92.17;;;34.53;;
6434;SDS011;3250;42.694;23.278;2023-11-21T03:48:57;46.20;;;20.70;;
6434;SDS011;3250;42.694;23.278;2023-11-21T03:51:23;33.87;;;16.33;;
6434;SDS011;3250;42.694;23.278;2023-11-21T03:53:48;60.45;;;26.83;;
6434;SDS011;3250;42.694;23.278;2023-11-21T03:56:14;28.67;;;16.37;;
6434;SDS011;3250;42.694;23.278;2023-11-21T03:58:39;33.77;;;14.67;;
6434;SDS011;3250;42.694;23.278;2023-11-21T04:01:05;25.60;;;12.77;;
6434;SDS011;3250;42.694;23.278;2023-11-21T04:03:31;30.77;;;13.33;;
6434;SDS011;3250;42.694;23.278;2023-11-21T04:05:56;32.57;;;14.50;;
6434;SDS011;3250;42.694;23.278;2023-11-21T04:08:22;18.67;;;11.77;;
6434;SDS011;3250;42.694;23.278;2023-11-21T04:10:47;32.87;;;13.27;;
6434;SDS011;3250;42.694;23.278;2023-11-21T04:13:13;24.70;;;11.87;;
6434;SDS011;3250;42.694;23.278;2023-11-21T04:15:39;23.93;;;11.23;;
6434;SDS011;3250;42.694;23.278;2023-11-21T04:18:04;21.27;;;12.30;;
6434;SDS011;3250;42.694;23.278;2023-11-21T04:20:30;21.97;;;11.57;;
6434;SDS011;3250;42.694;23.278;2023-11-21T04:22:55;22.10;;;11.73;;
6434;SDS011;3250;42.694;23.278;2023-11-21T04:25:21;25.03;;;12.07;;
6434;SDS011;3250;42.694;23.278;2023-11-21T04:27:48;25.57;;;11.70;;
6434;SDS011;3250;42.694;23.278;2023-11-21T04:30:14;23.17;;;12.27;;
6434;SDS011;3250;42.694;23.278;2023-11-21T04:32:40;24.37;;;10.90;;
6434;SDS011;3250;42.694;23.278;2023-11-21T04:35:05;30.37;;;12.10;;
6434;SDS011;3250;42.694;23.278;2023-11-21T04:37:31;31.83;;;12.27;;
6434;SDS011;3250;42.694;23.278;2023-11-21T04:39:57;36.17;;;15.10;;
6434;SDS011;3250;42.694;23.278;2023-11-21T04:42:22;29.63;;;13.27;;
6434;SDS011;3250;42.694;23.278;2023-11-21T04:44:48;27.43;;;14.00;;
6434;SDS011;3250;42.694;23.278;2023-11-21T04:47:14;35.40;;;15.40;;
6434;SDS011;3250;42.694;23.278;2023-11-21T04:49:41;29.67;;;17.00;;
6434;SDS011;3250;42.694;23.278;2023-11-21T04:52:08;39.30;;;14.77;;
6434;SDS011;3250;42.694;23.278;2023-11-21T04:54:35;42.17;;;18.03;;
6434;SDS011;3250;42.694;23.278;2023-11-21T04:57:00;37.60;;;18.83;;
6434;SDS011;3250;42.694;23.278;2023-11-21T04:59:26;43.50;;;18.10;;
6434;SDS011;3250;42.694;23.278;2023-11-21T05:01:52;36.13;;;17.43;;
6434;SDS011;3250;42.694;23.278;2023-11-21T05:04:18;40.33;;;18.95;;
6434;SDS011;3250;42.694;23.278;2023-11-21T05:06:44;32.87;;;15.67;;
6434;SDS011;3250;42.694;23.278;2023-11-21T05:09:11;28.83;;;16.03;;
6434;SDS011;3250;42.694;23.278;2023-11-21T05:11:37;37.87;;;17.17;;
6434;SDS011;3250;42.694;23.278;2023-11-21T05:14:04;36.73;;;17.67;;
6434;SDS011;3250;42.694;23.278;2023-11-21T05:16:30;35.70;;;16.30;;
6434;SDS011;3250;42.694;23.278;2023-11-21T05:18:56;27.93;;;15.33;;
6434;SDS011;3250;42.694;23.278;2023-11-21T05:21:26;32.00;;;16.00;;
6434;SDS011;3250;42.694;23.278;2023-11-21T05:23:52;27.00;;;13.57;;
6434;SDS011;3250;42.694;23.278;2023-11-21T05:26:17;33.50;;;15.07;;
6434;SDS011;3250;42.694;23.278;2023-11-21T05:28:43;33.40;;;16.10;;
6434;SDS011;3250;42.694;23.278;2023-11-21T05:31:08;33.87;;;16.50;;
6434;SDS011;3250;42.694;23.278;2023-11-21T05:33:33;35.17;;;14.90;;
6434;SDS011;3250;42.694;23.278;2023-11-21T05:35:59;29.70;;;15.07;;
6434;SDS011;3250;42.694;23.278;2023-11-21T05:38:24;29.57;;;16.37;;
6434;SDS011;3250;42.694;23.278;2023-11-21T05:40:50;35.13;;;17.63;;
6434;SDS011;3250;42.694;23.278;2023-11-21T05:43:16;28.57;;;14.33;;
6434;SDS011;3250;42.694;23.278;2023-11-21T05:45:41;36.77;;;16.80;;
6434;SDS011;3250;42.694;23.278;2023-11-21T05:48:07;40.40;;;18.50;;
6434;SDS011;3250;42.694;23.278;2023-11-21T05:50:32;21.50;;;11.43;;
6434;SDS011;3250;42.694;23.278;2023-11-21T05:52:58;35.20;;;16.93;;
6434;SDS011;3250;42.694;23.278;2023-11-21T05:55:25;35.47;;;15.80;;
6434;SDS011;3250;42.694;23.278;2023-11-21T05:57:51;37.53;;;16.17;;
6434;SDS011;3250;42.694;23.278;2023-11-21T06:00:16;32.73;;;16.53;;
6434;SDS011;3250;42.694;23.278;2023-11-21T06:02:50;37.10;;;18.00;;
6434;SDS011;3250;42.694;23.278;2023-11-21T06:05:21;42.73;;;17.60;;
6434;SDS011;3250;42.694;23.278;2023-11-21T06:07:48;39.70;;;20.33;;
6434;SDS011;3250;42.694;23.278;2023-11-21T06:10:14;49.27;;;19.93;;
6434;SDS011;3250;42.694;23.278;2023-11-21T06:12:40;33.63;;;17.60;;
6434;SDS011;3250;42.694;23.278;2023-11-21T06:15:08;51.33;;;20.03;;
6434;SDS011;3250;42.694;23.278;2023-11-21T06:17:35;45.53;;;20.83;;
6434;SDS011;3250;42.694;23.278;2023-11-21T06:20:04;40.03;;;20.57;;
6434;SDS011;3250;42.694;23.278;2023-11-21T06:22:35;39.83;;;19.83;;
6434;SDS011;3250;42.694;23.278;2023-11-21T06:25:04;37.30;;;18.87;;
6434;SDS011;3250;42.694;23.278;2023-11-21T06:27:34;31.10;;;16.13;;
6434;SDS011;3250;42.694;23.278;2023-11-21T06:30:02;27.63;;;14.77;;
6434;SDS011;3250;42.694;23.278;2023-11-21T06:32:28;27.20;;;12.43;;
6434;SDS011;3250;42.694;23.278;2023-11-21T06:34:57;24.07;;;11.90;;
6434;SDS011;3250;42.694;23.278;2023-11-21T06:37:28;27.23;;;13.73;;
6434;SDS011;3250;42.694;23.278;2023-11-21T06:39:54;44.20;;;13.33;;
6434;SDS011;3250;42.694;23.278;2023-11-21T06:42:21;31.20;;;15.03;;
6434;SDS011;3250;42.694;23.278;2023-11-21T06:44:47;32.73;;;15.70;;
6434;SDS011;3250;42.694;23.278;2023-11-21T06:47:14;35.37;;;15.63;;
6434;SDS011;3250;42.694;23.278;2023-11-21T06:49:40;31.20;;;14.57;;
6434;SDS011;3250;42.694;23.278;2023-11-21T06:52:06;27.83;;;12.73;;
6434;SDS011;3250;42.694;23.278;2023-11-21T06:54:31;29.13;;;13.73;;
6434;SDS011;3250;42.694;23.278;2023-11-21T06:56:58;25.67;;;11.37;;
6434;SDS011;3250;42.694;23.278;2023-11-21T06:59:23;22.97;;;12.93;;
6434;SDS011;3250;42.694;23.278;2023-11-21T07:01:49;26.50;;;11.77;;
6434;SDS011;3250;42.694;23.278;2023-11-21T07:04:15;23.97;;;12.73;;
6434;SDS011;3250;42.694;23.278;2023-11-21T07:06:40;24.30;;;11.40;;
6434;SDS011;3250;42.694;23.278;2023-11-21T07:09:06;27.23;;;12.50;;
6434;SDS011;3250;42.694;23.278;2023-11-21T07:11:33;29.73;;;13.67;;
6434;SDS011;3250;42.694;23.278;2023-11-21T07:13:59;23.73;;;11.97;;
6434;SDS011;3250;42.694;23.278;2023-11-21T07:16:27;30.53;;;13.60;;
6434;SDS011;3250;42.694;23.278;2023-11-21T07:18:55;30.27;;;13.77;;
6434;SDS011;3250;42.694;23.278;2023-11-21T07:21:21;29.53;;;12.67;;
6434;SDS011;3250;42.694;23.278;2023-11-21T07:23:46;26.87;;;13.27;;
6434;SDS011;3250;42.694;23.278;2023-11-21T07:26:11;24.83;;;14.10;;
6434;SDS011;3250;42.694;23.278;2023-11-21T07:28:37;28.20;;;11.77;;
6434;SDS011;3250;42.694;23.278;2023-11-21T07:31:03;29.47;;;13.63;;
6434;SDS011;3250;42.694;23.278;2023-11-21T07:33:28;24.63;;;11.90;;
6434;SDS011;3250;42.694;23.278;2023-11-21T07:35:54;22.33;;;11.87;;
6434;SDS011;3250;42.694;23.278;2023-11-21T07:38:19;19.53;;;10.17;;
6434;SDS011;3250;42.694;23.278;2023-11-21T07:40:44;20.67;;;10.07;;
6434;SDS011;3250;42.694;23.278;2023-11-21T07:43:10;20.87;;;10.43;;
6434;SDS011;3250;42.694;23.278;2023-11-21T07:45:35;18.50;;;10.33;;
6434;SDS011;3250;42.694;23.278;2023-11-21T07:48:01;22.83;;;10.80;;
6434;SDS011;3250;42.694;23.278;2023-11-21T07:50:28;27.13;;;11.30;;
6434;SDS011;3250;42.694;23.278;2023-11-21T07:52:55;30.20;;;11.63;;
6434;SDS011;3250;42.694;23.278;2023-11-21T07:55:21;30.20;;;10.37;;
6434;SDS011;3250;42.694;23.278;2023-11-21T07:57:46;17.87;;;10.70;;
6434;SDS011;3250;42.694;23.278;2023-11-21T08:00:12;26.47;;;11.83;;
6434;SDS011;3250;42.694;23.278;2023-11-21T08:02:40;22.47;;;11.83;;
6434;SDS011;3250;42.694;23.278;2023-11-21T08:05:11;23.00;;;11.93;;
6434;SDS011;3250;42.694;23.278;2023-11-21T08:07:37;21.53;;;12.80;;
6434;SDS011;3250;42.694;23.278;2023-11-21T08:10:02;18.07;;;11.03;;
6434;SDS011;3250;42.694;23.278;2023-11-21T08:12:30;22.90;;;11.30;;
6434;SDS011;3250;42.694;23.278;2023-11-21T08:14:55;22.97;;;11.77;;
6434;SDS011;3250;42.694;23.278;2023-11-21T08:17:21;31.97;;;12.37;;
6434;SDS011;3250;42.694;23.278;2023-11-21T08:19:46;30.63;;;13.13;;
6434;SDS011;3250;42.694;23.278;2023-11-21T08:22:15;31.30;;;12.63;;
6434;SDS011;3250;42.694;23.278;2023-11-21T08:24:42;30.10;;;11.97;;
6434;SDS011;3250;42.694;23.278;2023-11-21T08:27:08;27.80;;;11.67;;
6434;SDS011;3250;42.694;23.278;2023-11-21T08:29:34;28.33;;;12.70;;
6434;SDS011;3250;42.694;23.278;2023-11-21T08:32:01;21.57;;;11.30;;
6434;SDS011;3250;42.694;23.278;2023-11-21T08:34:27;20.97;;;11.03;;
6434;SDS011;3250;42.694;23.278;2023-11-21T08:36:53;19.33;;;10.67;;
6434;SDS011;3250;42.694;23.278;2023-11-21T08:39:20;22.63;;;10.90;;
6434;SDS011;3250;42.694;23.278;2023-11-21T08:41:49;24.17;;;10.47;;
6434;SDS011;3250;42.694;23.278;2023-11-21T08:44:15;20.43;;;9.67;;
6434;SDS011;3250;42.694;23.278;2023-11-21T08:46:43;17.33;;;9.37;;
6434;SDS011;3250;42.694;23.278;2023-11-21T08:49:10;18.90;;;9.00;;
6434;SDS011;3250;42.694;23.278;2023-11-21T08:51:37;26.30;;;12.50;;
6434;SDS011;3250;42.694;23.278;2023-11-21T08:54:03;22.87;;;13.07;;
6434;SDS011;3250;42.694;23.278;2023-11-21T08:56:32;26.33;;;12.67;;
6434;SDS011;3250;42.694;23.278;2023-11-21T08:58:58;31.20;;;14.43;;
6434;SDS011;3250;42.694;23.278;2023-11-21T09:01:25;28.10;;;13.67;;
6434;SDS011;3250;42.694;23.278;2023-11-21T09:03:51;29.50;;;14.23;;
6434;SDS011;3250;42.694;23.278;2023-11-21T09:06:16;24.37;;;13.27;;
6434;SDS011;3250;42.694;23.278;2023-11-21T09:08:42;23.87;;;12.67;;
6434;SDS011;3250;42.694;23.278;2023-11-21T09:11:08;28.90;;;13.70;;
6434;SDS011;3250;42.694;23.278;2023-11-21T09:13:33;27.43;;;12.43;;
6434;SDS011;3250;42.694;23.278;2023-11-21T09:15:59;26.83;;;12.47;;
6434;SDS011;3250;42.694;23.278;2023-11-21T09:18:25;26.37;;;10.17;;
6434;SDS011;3250;42.694;23.278;2023-11-21T09:20:50;18.73;;;9.73;;
6434;SDS011;3250;42.694;23.278;2023-11-21T09:23:16;21.93;;;11.13;;
6434;SDS011;3250;42.694;23.278;2023-11-21T09:25:41;20.63;;;10.20;;
6434;SDS011;3250;42.694;23.278;2023-11-21T09:28:11;29.77;;;11.17;;
6434;SDS011;3250;42.694;23.278;2023-11-21T09:30:36;27.00;;;11.23;;
6434;SDS011;3250;42.694;23.278;2023-11-21T09:33:03;23.50;;;10.80;;
6434;SDS011;3250;42.694;23.278;2023-11-21T09:35:33;34.40;;;15.63;;
6434;SDS011;3250;42.694;23.278;2023-11-21T09:37:59;33.93;;;16.27;;
6434;SDS011;3250;42.694;23.278;2023-11-21T09:40:26;38.83;;;19.97;;
6434;SDS011;3250;42.694;23.278;2023-11-21T09:42:55;25.93;;;13.13;;
6434;SDS011;3250;42.694;23.278;2023-11-21T09:45:28;32.70;;;14.13;;
6434;SDS011;3250;42.694;23.278;2023-11-21T09:47:59;30.53;;;13.00;;
6434;SDS011;3250;42.694;23.278;2023-11-21T09:50:25;34.50;;;11.23;;
6434;SDS011;3250;42.694;23.278;2023-11-21T09:55:22;27.80;;;13.83;;
6434;SDS011;3250;42.694;23.278;2023-11-21T09:57:52;26.67;;;13.90;;
6434;SDS011;3250;42.694;23.278;2023-11-21T10:00:19;22.83;;;11.97;;
6434;SDS011;3250;42.694;23.278;2023-11-21T10:02:48;32.50;;;13.20;;
6434;SDS011;3250;42.694;23.278;2023-11-21T10:05:14;28.20;;;13.47;;
6434;SDS011;3250;42.694;23.278;2023-11-21T10:07:40;25.40;;;11.50;;
6434;SDS011;3250;42.694;23.278;2023-11-21T10:10:09;33.47;;;12.17;;
6434;SDS011;3250;42.694;23.278;2023-11-21T10:12:35;28.83;;;11.70;;
6434;SDS011;3250;42.694;23.278;2023-11-21T10:15:03;29.50;;;11.47;;
6434;SDS011;3250;42.694;23.278;2023-11-21T10:17:34;24.97;;;11.40;;
6434;SDS011;3250;42.694;23.278;2023-11-21T10:20:08;18.57;;;10.37;;
6434;SDS011;3250;42.694;23.278;2023-11-21T10:22:42;21.53;;;11.50;;
6434;SDS011;3250;42.694;23.278;2023-11-21T10:25:08;35.43;;;12.37;;
6434;SDS011;3250;42.694;23.278;2023-11-21T10:27:36;21.10;;;11.70;;
6434;SDS011;3250;42.694;23.278;2023-11-21T10:30:04;26.50;;;10.23;;
6434;SDS011;3250;42.694;23.278;2023-11-21T16:16:29;82.77;;;39.90;;
6434;SDS011;3250;42.694;23.278;2023-11-21T16:18:55;78.40;;;35.67;;
6434;SDS011;3250;42.694;23.278;2023-11-21T16:21:20;77.63;;;37.37;;
6434;SDS011;3250;42.694;23.278;2023-11-21T16:23:46;87.03;;;37.80;;
6434;SDS011;3250;42.694;23.278;2023-11-21T16:26:11;86.37;;;40.30;;
6434;SDS011;3250;42.694;23.278;2023-11-21T16:28:37;94.10;;;42.67;;
6434;SDS011;3250;42.694;23.278;2023-11-21T16:31:02;78.53;;;36.33;;
6434;SDS011;3250;42.694;23.278;2023-11-21T16:33:28;76.60;;;32.87;;
6434;SDS011;3250;42.694;23.278;2023-11-21T16:35:54;57.80;;;28.47;;
6434;SDS011;3250;42.694;23.278;2023-11-21T16:38:20;83.17;;;37.13;;
6434;SDS011;3250;42.694;23.278;2023-11-21T16:40:46;99.43;;;41.13;;
6434;SDS011;3250;42.694;23.278;2023-11-21T16:43:11;88.20;;;40.57;;
6434;SDS011;3250;42.694;23.278;2023-11-21T16:45:37;82.00;;;39.17;;
6434;SDS011;3250;42.694;23.278;2023-11-21T16:48:02;81.53;;;38.20;;
6434;SDS011;3250;42.694;23.278;2023-11-21T16:50:28;81.57;;;40.67;;
6434;SDS011;3250;42.694;23.278;2023-11-21T16:52:54;98.87;;;42.83;;
6434;SDS011;3250;42.694;23.278;2023-11-21T16:55:19;86.93;;;39.27;;
6434;SDS011;3250;42.694;23.278;2023-11-21T16:57:45;137.43;;;60.27;;
6434;SDS011;3250;42.694;23.278;2023-11-21T17:00:11;154.57;;;68.83;;
6434;SDS011;3250;42.694;23.278;2023-11-21T17:02:37;164.50;;;70.93;;
6434;SDS011;3250;42.694;23.278;2023-11-21T17:05:04;158.63;;;69.77;;
6434;SDS011;3250;42.694;23.278;2023-11-21T17:07:30;151.57;;;64.90;;
6434;SDS011;3250;42.694;23.278;2023-11-21T17:09:58;125.27;;;59.57;;
6434;SDS011;3250;42.694;23.278;2023-11-21T17:12:24;143.80;;;62.60;;
6434;SDS011;3250;42.694;23.278;2023-11-21T17:14:51;110.90;;;55.60;;
6434;SDS011;3250;42.694;23.278;2023-11-21T17:17:16;108.33;;;49.73;;
6434;SDS011;3250;42.694;23.278;2023-11-21T17:19:42;120.03;;;54.83;;
6434;SDS011;3250;42.694;23.278;2023-11-21T17:22:08;124.60;;;54.53;;
6434;SDS011;3250;42.694;23.278;2023-11-21T17:24:33;110.70;;;56.20;;
6434;SDS011;3250;42.694;23.278;2023-11-21T17:27:01;116.90;;;50.13;;
6434;SDS011;3250;42.694;23.278;2023-11-21T17:29:28;119.63;;;61.10;;
6434;SDS011;3250;42.694;23.278;2023-11-21T17:31:53;107.77;;;53.90;;
6434;SDS011;3250;42.694;23.278;2023-11-21T17:34:18;112.90;;;51.40;;
6434;SDS011;3250;42.694;23.278;2023-11-21T17:36:45;101.07;;;46.93;;
6434;SDS011;3250;42.694;23.278;2023-11-21T17:39:11;133.47;;;52.87;;
6434;SDS011;3250;42.694;23.278;2023-11-21T17:41:36;104.73;;;50.30;;
6434;SDS011;3250;42.694;23.278;2023-11-21T17:44:02;109.80;;;48.07;;
6434;SDS011;3250;42.694;23.278;2023-11-21T17:46:28;151.13;;;71.27;;
6434;SDS011;3250;42.694;23.278;2023-11-21T17:48:54;253.77;;;130.33;;
6434;SDS011;3250;42.694;23.278;2023-11-21T17:51:20;235.77;;;120.03;;
6434;SDS011;3250;42.694;23.278;2023-11-21T17:53:45;233.17;;;117.90;;
6434;SDS011;3250;42.694;23.278;2023-11-21T17:56:12;225.13;;;116.23;;
6434;SDS011;3250;42.694;23.278;2023-11-21T17:58:38;229.67;;;106.77;;
6434;SDS011;3250;42.694;23.278;2023-11-21T18:01:04;236.93;;;115.17;;
6434;SDS011;3250;42.694;23.278;2023-11-21T18:03:29;217.37;;;111.53;;
6434;SDS011;3250;42.694;23.278;2023-11-21T18:05:55;246.80;;;116.80;;
6434;SDS011;3250;42.694;23.278;2023-11-21T18:08:20;249.83;;;120.37;;
6434;SDS011;3250;42.694;23.278;2023-11-21T18:10:46;248.37;;;116.17;;
6434;SDS011;3250;42.694;23.278;2023-11-21T18:13:12;252.63;;;121.47;;
6434;SDS011;3250;42.694;23.278;2023-11-21T18:15:38;234.67;;;118.37;;
6434;SDS011;3250;42.694;23.278;2023-11-21T18:18:04;230.40;;;116.93;;
6434;SDS011;3250;42.694;23.278;2023-11-21T18:20:30;236.53;;;116.57;;
6434;SDS011;3250;42.694;23.278;2023-11-21T18:22:55;243.87;;;122.57;;
6434;SDS011;3250;42.694;23.278;2023-11-21T18:25:21;289.87;;;138.13;;
6434;SDS011;3250;42.694;23.278;2023-11-21T18:27:46;291.73;;;140.97;;
6434;SDS011;3250;42.694;23.278;2023-11-21T18:30:12;259.53;;;129.47;;
6434;SDS011;3250;42.694;23.278;2023-11-21T18:32:39;218.17;;;105.03;;
6434;SDS011;3250;42.694;23.278;2023-11-21T18:35:05;196.33;;;100.53;;
6434;SDS011;3250;42.694;23.278;2023-11-21T18:37:30;214.10;;;104.03;;
6434;SDS011;3250;42.694;23.278;2023-11-21T18:39:56;241.07;;;110.53;;
6434;SDS011;3250;42.694;23.278;2023-11-21T18:42:22;199.67;;;100.77;;
6434;SDS011;3250;42.694;23.278;2023-11-21T18:44:49;215.60;;;104.33;;
6434;SDS011;3250;42.694;23.278;2023-11-21T18:47:14;152.50;;;70.57;;
6434;SDS011;3250;42.694;23.278;2023-11-21T18:49:41;158.03;;;75.20;;
6434;SDS011;3250;42.694;23.278;2023-11-21T18:52:10;184.87;;;85.37;;
6434;SDS011;3250;42.694;23.278;2023-11-21T18:54:41;194.40;;;85.73;;
6434;SDS011;3250;42.694;23.278;2023-11-21T18:57:10;172.50;;;78.20;;
6434;SDS011;3250;42.694;23.278;2023-11-21T18:59:36;169.13;;;81.93;;
6434;SDS011;3250;42.694;23.278;2023-11-21T19:02:03;171.33;;;85.00;;
6434;SDS011;3250;42.694;23.278;2023-11-21T19:04:33;164.80;;;80.50;;
6434;SDS011;3250;42.694;23.278;2023-11-21T19:06:58;184.40;;;88.37;;
6434;SDS011;3250;42.694;23.278;2023-11-21T19:09:27;190.43;;;86.60;;
6434;SDS011;3250;42.694;23.278;2023-11-21T19:11:54;154.57;;;74.93;;
6434;SDS011;3250;42.694;23.278;2023-11-21T19:14:20;162.57;;;79.33;;
6434;SDS011;3250;42.694;23.278;2023-11-21T19:16:46;180.33;;;82.70;;
6434;SDS011;3250;42.694;23.278;2023-11-21T19:19:12;172.87;;;82.10;;
6434;SDS011;3250;42.694;23.278;2023-11-21T19:21:38;193.63;;;87.27;;
6434;SDS011;3250;42.694;23.278;2023-11-21T19:24:05;182.37;;;81.80;;
6434;SDS011;3250;42.694;23.278;2023-11-21T19:26:31;232.70;;;104.40;;
6434;SDS011;3250;42.694;23.278;2023-11-21T19:28:57;213.13;;;97.23;;
6434;SDS011;3250;42.694;23.278;2023-11-21T19:31:24;216.57;;;95.37;;
6434;SDS011;3250;42.694;23.278;2023-11-21T19:33:49;232.07;;;101.83;;
6434;SDS011;3250;42.694;23.278;2023-11-21T19:36:17;257.80;;;106.50;;
6434;SDS011;3250;42.694;23.278;2023-11-21T19:38:45;230.90;;;104.53;;
6434;SDS011;3250;42.694;23.278;2023-11-21T19:41:18;228.23;;;102.43;;
6434;SDS011;3250;42.694;23.278;2023-11-21T19:43:47;241.43;;;108.97;;
6434;SDS011;3250;42.694;23.278;2023-11-21T19:46:14;247.63;;;111.33;;
6434;SDS011;3250;42.694;23.278;2023-11-21T19:48:40;251.13;;;110.03;;
6434;SDS011;3250;42.694;23.278;2023-11-21T19:51:09;299.07;;;121.63;;
6434;SDS011;3250;42.694;23.278;2023-11-21T19:53:37;285.80;;;125.77;;
6434;SDS011;3250;42.694;23.278;2023-11-21T19:56:03;287.63;;;128.37;;
6434;SDS011;3250;42.694;23.278;2023-11-21T19:58:36;282.67;;;120.67;;
6434;SDS011;3250;42.694;23.278;2023-11-21T20:01:02;291.80;;;125.17;;
6434;SDS011;3250;42.694;23.278;2023-11-21T20:03:30;213.27;;;101.33;;
6434;SDS011;3250;42.694;23.278;2023-11-21T20:05:58;182.87;;;83.03;;
6434;SDS011;3250;42.694;23.278;2023-11-21T20:08:26;223.57;;;94.63;;
6434;SDS011;3250;42.694;23.278;2023-11-21T20:10:56;215.37;;;96.23;;
6434;SDS011;3250;42.694;23.278;2023-11-21T20:13:24;214.07;;;97.13;;